sensor_id;sensor_type;location;lat;lon;timestamp;pressure;altitude;pressure_sealevel;temperature
60615;BMP280;46444;45.590;5.284;2023-03-21T00:01:21;99090.50;;;9.46
60615;BMP280;46444;45.590;5.284;2023-03-21T00:03:50;99088.31;;;9.37
60615;BMP280;46444;45.590;5.284;2023-03-21T00:06:58;99098.56;;;9.40
60615;BMP280;46444;45.590;5.284;2023-03-21T00:09:05;99095.00;;;9.46
60615;BMP280;46444;45.590;5.284;2023-03-21T00:11:30;99092.50;;;9.51
60615;BMP280;46444;45.590;5.284;2023-03-21T00:13:56;99096.03;;;9.27
60615;BMP280;46444;45.590;5.284;2023-03-21T00:16:22;99097.16;;;9.37
60615;BMP280;46444;45.590;5.284;2023-03-21T00:18:49;99097.19;;;9.13
60615;BMP280;46444;45.590;5.284;2023-03-21T00:21:20;99086.53;;;9.31
60615;BMP280;46444;45.590;5.284;2023-03-21T00:26:57;99090.75;;;9.20
60615;BMP280;46444;45.590;5.284;2023-03-21T00:29:22;99098.72;;;9.02
60615;BMP280;46444;45.590;5.284;2023-03-21T00:31:47;99088.00;;;9.09
60615;BMP280;46444;45.590;5.284;2023-03-21T00:34:13;99084.06;;;8.93
60615;BMP280;46444;45.590;5.284;2023-03-21T00:36:38;99083.97;;;9.00
60615;BMP280;46444;45.590;5.284;2023-03-21T00:39:04;99078.16;;;9.09
60615;BMP280;46444;45.590;5.284;2023-03-21T00:41:40;99077.34;;;9.09
60615;BMP280;46444;45.590;5.284;2023-03-21T00:44:35;99078.22;;;9.03
60615;BMP280;46444;45.590;5.284;2023-03-21T00:47:02;99081.22;;;8.88
60615;BMP280;46444;45.590;5.284;2023-03-21T00:49:28;99083.09;;;9.06
60615;BMP280;46444;45.590;5.284;2023-03-21T00:52:05;99075.41;;;8.98
60615;BMP280;46444;45.590;5.284;2023-03-21T00:54:34;99071.81;;;8.86
60615;BMP280;46444;45.590;5.284;2023-03-21T00:56:59;99075.56;;;8.78
60615;BMP280;46444;45.590;5.284;2023-03-21T00:59:27;99064.41;;;8.88
60615;BMP280;46444;45.590;5.284;2023-03-21T01:01:52;99064.53;;;8.75
60615;BMP280;46444;45.590;5.284;2023-03-21T01:04:18;99076.06;;;8.69
60615;BMP280;46444;45.590;5.284;2023-03-21T01:06:46;99065.56;;;8.74
60615;BMP280;46444;45.590;5.284;2023-03-21T01:09:17;99062.38;;;8.90
60615;BMP280;46444;45.590;5.284;2023-03-21T01:11:45;99056.38;;;8.94
60615;BMP280;46444;45.590;5.284;2023-03-21T01:14:12;99059.53;;;8.85
60615;BMP280;46444;45.590;5.284;2023-03-21T01:16:41;99055.50;;;9.00
60615;BMP280;46444;45.590;5.284;2023-03-21T01:19:13;99057.16;;;8.95
60615;BMP280;46444;45.590;5.284;2023-03-21T01:21:40;99053.91;;;8.93
60615;BMP280;46444;45.590;5.284;2023-03-21T01:24:06;99042.22;;;8.94
60615;BMP280;46444;45.590;5.284;2023-03-21T01:26:41;99043.13;;;9.06
60615;BMP280;46444;45.590;5.284;2023-03-21T01:29:06;99043.13;;;9.06
60615;BMP280;46444;45.590;5.284;2023-03-21T01:31:40;99046.75;;;8.93
60615;BMP280;46444;45.590;5.284;2023-03-21T01:34:06;99043.69;;;8.72
60615;BMP280;46444;45.590;5.284;2023-03-21T01:36:31;99045.19;;;8.86
60615;BMP280;46444;45.590;5.284;2023-03-21T01:38:57;99045.19;;;8.86
60615;BMP280;46444;45.590;5.284;2023-03-21T01:43:53;99029.31;;;8.73
60615;BMP280;46444;45.590;5.284;2023-03-21T01:46:41;99021.69;;;8.76
60615;BMP280;46444;45.590;5.284;2023-03-21T01:49:19;99020.28;;;8.74
60615;BMP280;46444;45.590;5.284;2023-03-21T01:51:56;99018.81;;;8.78
60615;BMP280;46444;45.590;5.284;2023-03-21T01:54:26;99008.50;;;8.63
60615;BMP280;46444;45.590;5.284;2023-03-21T01:56:58;99016.31;;;8.58
60615;BMP280;46444;45.590;5.284;2023-03-21T01:59:29;99014.22;;;8.67
60615;BMP280;46444;45.590;5.284;2023-03-21T02:02:00;99020.13;;;8.69
60615;BMP280;46444;45.590;5.284;2023-03-21T02:04:33;99019.38;;;8.62
60615;BMP280;46444;45.590;5.284;2023-03-21T02:07:04;99015.63;;;8.45
60615;BMP280;46444;45.590;5.284;2023-03-21T02:09:33;99016.81;;;8.49
60615;BMP280;46444;45.590;5.284;2023-03-21T02:12:00;99017.88;;;8.48
60615;BMP280;46444;45.590;5.284;2023-03-21T02:14:26;99020.91;;;8.52
60615;BMP280;46444;45.590;5.284;2023-03-21T02:26:19;99008.09;;;8.42
60615;BMP280;46444;45.590;5.284;2023-03-21T02:37:30;98995.28;;;8.26
60615;BMP280;46444;45.590;5.284;2023-03-21T02:43:24;98990.53;;;8.04
60615;BMP280;46444;45.590;5.284;2023-03-21T02:45:58;98995.38;;;8.13
60615;BMP280;46444;45.590;5.284;2023-03-21T02:48:36;98983.84;;;8.19
60615;BMP280;46444;45.590;5.284;2023-03-21T02:51:04;98988.84;;;8.09
60615;BMP280;46444;45.590;5.284;2023-03-21T02:53:39;98998.75;;;7.96
60615;BMP280;46444;45.590;5.284;2023-03-21T02:56:06;98986.69;;;7.93
60615;BMP280;46444;45.590;5.284;2023-03-21T02:58:36;98995.88;;;7.97
60615;BMP280;46444;45.590;5.284;2023-03-21T03:01:03;98988.09;;;7.96
60615;BMP280;46444;45.590;5.284;2023-03-21T03:03:31;98985.91;;;7.86
60615;BMP280;46444;45.590;5.284;2023-03-21T03:05:58;98990.94;;;8.01
60615;BMP280;46444;45.590;5.284;2023-03-21T03:11:28;98995.53;;;7.87
60615;BMP280;46444;45.590;5.284;2023-03-21T03:19:23;98996.34;;;7.88
60615;BMP280;46444;45.590;5.284;2023-03-21T03:21:58;99000.84;;;7.87
60615;BMP280;46444;45.590;5.284;2023-03-21T03:27:31;98989.03;;;7.83
60615;BMP280;46444;45.590;5.284;2023-03-21T03:29:59;98991.50;;;7.78
60615;BMP280;46444;45.590;5.284;2023-03-21T03:32:54;98986.69;;;7.62
60615;BMP280;46444;45.590;5.284;2023-03-21T03:35:29;98992.69;;;7.82
60615;BMP280;46444;45.590;5.284;2023-03-21T03:38:00;98986.84;;;7.74
60615;BMP280;46444;45.590;5.284;2023-03-21T03:40:31;98986.97;;;7.79
60615;BMP280;46444;45.590;5.284;2023-03-21T03:43:06;98985.91;;;7.55
60615;BMP280;46444;45.590;5.284;2023-03-21T03:45:42;98988.75;;;7.54
60615;BMP280;46444;45.590;5.284;2023-03-21T03:48:45;98985.81;;;7.68
60615;BMP280;46444;45.590;5.284;2023-03-21T03:51:23;98992.84;;;7.56
60615;BMP280;46444;45.590;5.284;2023-03-21T03:53:54;98993.63;;;7.63
60615;BMP280;46444;45.590;5.284;2023-03-21T03:56:21;98982.50;;;7.73
60615;BMP280;46444;45.590;5.284;2023-03-21T03:58:48;98994.06;;;7.60
60615;BMP280;46444;45.590;5.284;2023-03-21T04:01:13;98987.97;;;7.53
60615;BMP280;46444;45.590;5.284;2023-03-21T04:03:40;98989.16;;;7.57
60615;BMP280;46444;45.590;5.284;2023-03-21T04:06:07;98992.66;;;7.51
60615;BMP280;46444;45.590;5.284;2023-03-21T04:08:32;98986.94;;;7.48
60615;BMP280;46444;45.590;5.284;2023-03-21T04:11:15;98981.81;;;7.53
60615;BMP280;46444;45.590;5.284;2023-03-21T04:13:41;98993.72;;;7.44
60615;BMP280;46444;45.590;5.284;2023-03-21T04:16:07;98993.75;;;7.37
60615;BMP280;46444;45.590;5.284;2023-03-21T04:18:33;98991.69;;;7.39
60615;BMP280;46444;45.590;5.284;2023-03-21T04:20:59;98987.97;;;7.47
60615;BMP280;46444;45.590;5.284;2023-03-21T04:23:27;98990.06;;;7.45
60615;BMP280;46444;45.590;5.284;2023-03-21T04:25:55;99002.78;;;7.30
60615;BMP280;46444;45.590;5.284;2023-03-21T04:28:20;98997.78;;;7.53
60615;BMP280;46444;45.590;5.284;2023-03-21T04:30:46;98999.00;;;7.50
60615;BMP280;46444;45.590;5.284;2023-03-21T04:33:17;98992.31;;;7.41
60615;BMP280;46444;45.590;5.284;2023-03-21T04:35:42;99010.13;;;7.34
60615;BMP280;46444;45.590;5.284;2023-03-21T04:38:10;99003.16;;;7.33
60615;BMP280;46444;45.590;5.284;2023-03-21T04:40:38;99005.59;;;7.41
60615;BMP280;46444;45.590;5.284;2023-03-21T04:43:07;99002.94;;;7.41
60615;BMP280;46444;45.590;5.284;2023-03-21T04:45:32;99002.13;;;7.34
60615;BMP280;46444;45.590;5.284;2023-03-21T04:47:58;99000.38;;;7.15
60615;BMP280;46444;45.590;5.284;2023-03-21T04:50:24;99003.28;;;7.07
60615;BMP280;46444;45.590;5.284;2023-03-21T04:52:50;98998.75;;;7.08
60615;BMP280;46444;45.590;5.284;2023-03-21T04:55:15;99000.66;;;6.94
60615;BMP280;46444;45.590;5.284;2023-03-21T04:57:41;99003.47;;;7.12
60615;BMP280;46444;45.590;5.284;2023-03-21T05:00:07;98997.56;;;7.04
60615;BMP280;46444;45.590;5.284;2023-03-21T05:02:38;98993.03;;;7.04
60615;BMP280;46444;45.590;5.284;2023-03-21T05:05:04;99000.03;;;7.05
60615;BMP280;46444;45.590;5.284;2023-03-21T05:07:31;98995.34;;;6.94
60615;BMP280;46444;45.590;5.284;2023-03-21T05:09:57;99002.25;;;7.08
60615;BMP280;46444;45.590;5.284;2023-03-21T05:12:38;99001.66;;;7.06
60615;BMP280;46444;45.590;5.284;2023-03-21T05:15:04;99003.47;;;7.12
60615;BMP280;46444;45.590;5.284;2023-03-21T05:17:32;99006.38;;;6.91
60615;BMP280;46444;45.590;5.284;2023-03-21T05:19:58;99013.94;;;6.94
60615;BMP280;46444;45.590;5.284;2023-03-21T05:22:24;99013.53;;;6.84
60615;BMP280;46444;45.590;5.284;2023-03-21T05:24:51;99010.66;;;6.92
60615;BMP280;46444;45.590;5.284;2023-03-21T05:27:20;99004.69;;;7.10
60615;BMP280;46444;45.590;5.284;2023-03-21T05:32:31;99004.09;;;7.01
60615;BMP280;46444;45.590;5.284;2023-03-21T05:34:57;99004.53;;;6.85
60615;BMP280;46444;45.590;5.284;2023-03-21T05:37:28;99004.94;;;6.89
60615;BMP280;46444;45.590;5.284;2023-03-21T05:39:54;99005.78;;;6.89
60615;BMP280;46444;45.590;5.284;2023-03-21T05:42:20;99000.25;;;6.91
60615;BMP280;46444;45.590;5.284;2023-03-21T05:44:47;99013.94;;;6.94
60615;BMP280;46444;45.590;5.284;2023-03-21T05:47:17;98991.03;;;6.93
60615;BMP280;46444;45.590;5.284;2023-03-21T05:49:44;98999.00;;;7.06
60615;BMP280;46444;45.590;5.284;2023-03-21T05:52:10;98997.97;;;7.07
60615;BMP280;46444;45.590;5.284;2023-03-21T05:54:35;98997.56;;;7.04
60615;BMP280;46444;45.590;5.284;2023-03-21T05:57:02;98996.53;;;7.11
60615;BMP280;46444;45.590;5.284;2023-03-21T05:59:37;99000.81;;;6.99
60615;BMP280;46444;45.590;5.284;2023-03-21T06:02:03;99003.66;;;7.11
60615;BMP280;46444;45.590;5.284;2023-03-21T06:04:37;99004.06;;;7.08
60615;BMP280;46444;45.590;5.284;2023-03-21T06:07:06;99002.44;;;7.13
60615;BMP280;46444;45.590;5.284;2023-03-21T06:09:31;99002.44;;;7.13
60615;BMP280;46444;45.590;5.284;2023-03-21T06:12:00;98995.88;;;7.16
60615;BMP280;46444;45.590;5.284;2023-03-21T06:14:26;99006.66;;;7.27
60615;BMP280;46444;45.590;5.284;2023-03-21T06:40:24;99013.41;;;7.36
60615;BMP280;46444;45.590;5.284;2023-03-21T06:42:52;99025.25;;;7.34
60615;BMP280;46444;45.590;5.284;2023-03-21T06:45:22;99027.22;;;7.51
60615;BMP280;46444;45.590;5.284;2023-03-21T06:47:54;99025.59;;;7.50
60615;BMP280;46444;45.590;5.284;2023-03-21T06:50:20;99029.63;;;7.66
60615;BMP280;46444;45.590;5.284;2023-03-21T06:52:46;99027.72;;;7.79
60615;BMP280;46444;45.590;5.284;2023-03-21T06:55:11;99029.13;;;7.82
60615;BMP280;46444;45.590;5.284;2023-03-21T06:57:39;99023.31;;;7.98
60615;BMP280;46444;45.590;5.284;2023-03-21T07:00:09;99029.97;;;8.13
60615;BMP280;46444;45.590;5.284;2023-03-21T07:15:34;99019.50;;;8.49
60615;BMP280;46444;45.590;5.284;2023-03-21T07:18:05;99026.16;;;8.58
60615;BMP280;46444;45.590;5.284;2023-03-21T07:20:31;99017.44;;;8.69
60615;BMP280;46444;45.590;5.284;2023-03-21T07:22:56;99025.63;;;8.74
60615;BMP280;46444;45.590;5.284;2023-03-21T07:25:22;99019.09;;;8.70
60615;BMP280;46444;45.590;5.284;2023-03-21T07:27:48;99026.81;;;8.78
60615;BMP280;46444;45.590;5.284;2023-03-21T07:30:15;99030.81;;;8.87
60615;BMP280;46444;45.590;5.284;2023-03-21T07:32:41;99037.97;;;8.86
60615;BMP280;46444;45.590;5.284;2023-03-21T07:35:09;99027.06;;;8.94
60615;BMP280;46444;45.590;5.284;2023-03-21T07:37:36;99023.06;;;9.03
60615;BMP280;46444;45.590;5.284;2023-03-21T07:40:02;99020.91;;;9.12
60615;BMP280;46444;45.590;5.284;2023-03-21T07:42:31;99019.28;;;9.29
60615;BMP280;46444;45.590;5.284;2023-03-21T07:44:57;99018.88;;;9.32
60615;BMP280;46444;45.590;5.284;2023-03-21T07:47:22;99021.22;;;9.40
60615;BMP280;46444;45.590;5.284;2023-03-21T07:49:48;99022.78;;;9.47
60615;BMP280;46444;45.590;5.284;2023-03-21T07:52:13;99019.38;;;9.58
60615;BMP280;46444;45.590;5.284;2023-03-21T08:25:19;99023.53;;;10.66
60615;BMP280;46444;45.590;5.284;2023-03-21T08:27:45;99022.72;;;10.77
60615;BMP280;46444;45.590;5.284;2023-03-21T08:30:14;99018.91;;;10.84
60615;BMP280;46444;45.590;5.284;2023-03-21T08:32:40;99023.66;;;10.94
60615;BMP280;46444;45.590;5.284;2023-03-21T08:35:08;99027.03;;;11.01
60615;BMP280;46444;45.590;5.284;2023-03-21T08:37:35;99019.09;;;10.94
60615;BMP280;46444;45.590;5.284;2023-03-21T08:40:01;99011.09;;;11.06
60615;BMP280;46444;45.590;5.284;2023-03-21T08:42:27;99022.25;;;11.14
60615;BMP280;46444;45.590;5.284;2023-03-21T08:44:53;99026.44;;;11.22
60615;BMP280;46444;45.590;5.284;2023-03-21T08:47:18;99017.56;;;11.33
60615;BMP280;46444;45.590;5.284;2023-03-21T08:49:44;99023.34;;;11.41
60615;BMP280;46444;45.590;5.284;2023-03-21T08:52:12;99014.63;;;11.46
60615;BMP280;46444;45.590;5.284;2023-03-21T08:54:38;99014.81;;;11.56
60615;BMP280;46444;45.590;5.284;2023-03-21T08:57:05;99012.75;;;11.58
60615;BMP280;46444;45.590;5.284;2023-03-21T08:59:30;99023.31;;;11.64
60615;BMP280;46444;45.590;5.284;2023-03-21T09:01:56;99012.50;;;11.71
60615;BMP280;46444;45.590;5.284;2023-03-21T09:04:21;99021.44;;;11.76
60615;BMP280;46444;45.590;5.284;2023-03-21T09:06:50;99024.44;;;11.80
60615;BMP280;46444;45.590;5.284;2023-03-21T09:09:16;99017.06;;;11.87
60615;BMP280;46444;45.590;5.284;2023-03-21T09:11:42;99014.50;;;11.92
60615;BMP280;46444;45.590;5.284;2023-03-21T09:14:08;99008.69;;;11.95
60615;BMP280;46444;45.590;5.284;2023-03-21T09:16:34;99009.47;;;11.95
60615;BMP280;46444;45.590;5.284;2023-03-21T09:19:00;99012.88;;;11.91
60615;BMP280;46444;45.590;5.284;2023-03-21T09:21:29;99010.94;;;12.03
60615;BMP280;46444;45.590;5.284;2023-03-21T09:23:55;99025.97;;;12.04
60615;BMP280;46444;45.590;5.284;2023-03-21T09:26:23;99017.13;;;12.03
60615;BMP280;46444;45.590;5.284;2023-03-21T09:28:49;99016.63;;;12.06
60615;BMP280;46444;45.590;5.284;2023-03-21T09:31:16;99019.75;;;12.15
60615;BMP280;46444;45.590;5.284;2023-03-21T09:33:48;99011.38;;;12.11
60615;BMP280;46444;45.590;5.284;2023-03-21T09:36:14;99024.44;;;12.08
60615;BMP280;46444;45.590;5.284;2023-03-21T09:38:40;99024.25;;;11.98
60615;BMP280;46444;45.590;5.284;2023-03-21T09:41:18;99018.69;;;12.16
60615;BMP280;46444;45.590;5.284;2023-03-21T09:49:15;99012.63;;;12.37
60615;BMP280;46444;45.590;5.284;2023-03-21T09:51:45;99013.84;;;12.46
60615;BMP280;46444;45.590;5.284;2023-03-21T09:54:19;99001.44;;;12.56
60615;BMP280;46444;45.590;5.284;2023-03-21T09:56:48;99007.13;;;12.60
60615;BMP280;46444;45.590;5.284;2023-03-21T09:59:24;99003.78;;;12.69
60615;BMP280;46444;45.590;5.284;2023-03-21T10:01:50;98997.22;;;12.77
60615;BMP280;46444;45.590;5.284;2023-03-21T10:04:16;98992.72;;;12.82
60615;BMP280;46444;45.590;5.284;2023-03-21T10:06:57;98988.19;;;12.83
60615;BMP280;46444;45.590;5.284;2023-03-21T10:09:25;98997.34;;;12.87
60615;BMP280;46444;45.590;5.284;2023-03-21T10:12:15;98993.78;;;12.98
60615;BMP280;46444;45.590;5.284;2023-03-21T10:14:45;98986.28;;;13.00
60615;BMP280;46444;45.590;5.284;2023-03-21T10:17:45;98988.56;;;13.08
60615;BMP280;46444;45.590;5.284;2023-03-21T10:20:18;98985.69;;;13.14
60615;BMP280;46444;45.590;5.284;2023-03-21T10:22:48;98993.56;;;13.21
60615;BMP280;46444;45.590;5.284;2023-03-21T10:25:18;98983.97;;;13.25
60615;BMP280;46444;45.590;5.284;2023-03-21T10:27:45;98984.59;;;13.32
60615;BMP280;46444;45.590;5.284;2023-03-21T10:30:29;98979.84;;;13.39
60615;BMP280;46444;45.590;5.284;2023-03-21T10:32:58;98972.94;;;13.43
60615;BMP280;46444;45.590;5.284;2023-03-21T10:35:29;98981.59;;;13.50
60615;BMP280;46444;45.590;5.284;2023-03-21T10:37:59;98990.72;;;13.49
60615;BMP280;46444;45.590;5.284;2023-03-21T10:40:25;98989.72;;;13.55
60615;BMP280;46444;45.590;5.284;2023-03-21T10:42:54;98986.09;;;13.66
60615;BMP280;46444;45.590;5.284;2023-03-21T10:45:21;98990.47;;;13.72
60615;BMP280;46444;45.590;5.284;2023-03-21T10:47:48;98981.63;;;13.76
60615;BMP280;46444;45.590;5.284;2023-03-21T10:50:16;98980.94;;;13.86
60615;BMP280;46444;45.590;5.284;2023-03-21T10:52:51;98973.00;;;13.96
60615;BMP280;46444;45.590;5.284;2023-03-21T10:55:26;98975.16;;;13.99
60615;BMP280;46444;45.590;5.284;2023-03-21T10:58:03;98974.97;;;14.05
60615;BMP280;46444;45.590;5.284;2023-03-21T11:00:42;98976.34;;;14.13
60615;BMP280;46444;45.590;5.284;2023-03-21T11:03:25;98973.81;;;14.23
60615;BMP280;46444;45.590;5.284;2023-03-21T11:06:02;98970.91;;;14.29
60615;BMP280;46444;45.590;5.284;2023-03-21T11:08:28;98973.38;;;14.36
60615;BMP280;46444;45.590;5.284;2023-03-21T11:13:26;98957.28;;;14.41
60615;BMP280;46444;45.590;5.284;2023-03-21T11:15:57;98954.69;;;14.51
60615;BMP280;46444;45.590;5.284;2023-03-21T11:18:29;98953.69;;;14.62
60615;BMP280;46444;45.590;5.284;2023-03-21T11:21:03;98953.69;;;14.62
60615;BMP280;46444;45.590;5.284;2023-03-21T11:23:31;98955.94;;;14.75
60615;BMP280;46444;45.590;5.284;2023-03-21T11:25:59;98954.06;;;14.80
60615;BMP280;46444;45.590;5.284;2023-03-21T11:28:32;98958.69;;;14.85
60615;BMP280;46444;45.590;5.284;2023-03-21T11:31:02;98954.44;;;14.94
60615;BMP280;46444;45.590;5.284;2023-03-21T11:33:34;98958.53;;;15.01
60615;BMP280;46444;45.590;5.284;2023-03-21T11:36:26;98947.00;;;15.11
60615;BMP280;46444;45.590;5.284;2023-03-21T11:38:58;98941.34;;;15.17
60615;BMP280;46444;45.590;5.284;2023-03-21T11:41:33;98931.47;;;15.28
60615;BMP280;46444;45.590;5.284;2023-03-21T11:44:01;98930.94;;;15.31
60615;BMP280;46444;45.590;5.284;2023-03-21T11:46:29;98923.19;;;15.39
60615;BMP280;46444;45.590;5.284;2023-03-21T11:48:56;98912.69;;;15.43
60615;BMP280;46444;45.590;5.284;2023-03-21T11:54:11;98918.63;;;15.50
60615;BMP280;46444;45.590;5.284;2023-03-21T11:56:44;98921.63;;;15.58
60615;BMP280;46444;45.590;5.284;2023-03-21T12:02:48;98908.72;;;15.70
60615;BMP280;46444;45.590;5.284;2023-03-21T12:05:26;98900.16;;;15.83
60615;BMP280;46444;45.590;5.284;2023-03-21T12:10:43;98889.66;;;16.07
60615;BMP280;46444;45.590;5.284;2023-03-21T12:19:07;98889.38;;;16.58
60615;BMP280;46444;45.590;5.284;2023-03-21T12:24:37;98868.88;;;17.31
60615;BMP280;46444;45.590;5.284;2023-03-21T12:32:47;98860.84;;;18.65
60615;BMP280;46444;45.590;5.284;2023-03-21T12:35:20;98859.38;;;19.00
60615;BMP280;46444;45.590;5.284;2023-03-21T15:44:13;98741.53;;;19.58
60615;BMP280;46444;45.590;5.284;2023-03-21T15:46:44;98740.75;;;19.58
60615;BMP280;46444;45.590;5.284;2023-03-21T15:51:55;98754.72;;;19.09
60615;BMP280;46444;45.590;5.284;2023-03-21T15:54:24;98752.06;;;19.04
60615;BMP280;46444;45.590;5.284;2023-03-21T15:56:59;98747.00;;;19.22
60615;BMP280;46444;45.590;5.284;2023-03-21T16:02:16;98755.06;;;19.03
60615;BMP280;46444;45.590;5.284;2023-03-21T16:05:18;98750.53;;;18.98
60615;BMP280;46444;45.590;5.284;2023-03-21T16:07:46;98746.84;;;18.71
60615;BMP280;46444;45.590;5.284;2023-03-21T16:10:43;98740.59;;;18.71
60615;BMP280;46444;45.590;5.284;2023-03-21T16:13:10;98740.69;;;18.66
60615;BMP280;46444;45.590;5.284;2023-03-21T16:15:38;98744.84;;;18.77
60615;BMP280;46444;45.590;5.284;2023-03-21T16:18:04;98741.34;;;18.76
60615;BMP280;46444;45.590;5.284;2023-03-21T16:20:35;98735.72;;;18.73
60615;BMP280;46444;45.590;5.284;2023-03-21T16:23:01;98739.19;;;18.97
60615;BMP280;46444;45.590;5.284;2023-03-21T16:25:30;98738.75;;;18.90
60615;BMP280;46444;45.590;5.284;2023-03-21T16:27:56;98739.78;;;19.12
60615;BMP280;46444;45.590;5.284;2023-03-21T16:30:22;98745.50;;;19.10
60615;BMP280;46444;45.590;5.284;2023-03-21T16:32:48;98750.31;;;18.53
60615;BMP280;46444;45.590;5.284;2023-03-21T16:35:17;98751.63;;;18.98
60615;BMP280;46444;45.590;5.284;2023-03-21T16:37:43;98758.44;;;18.95
60615;BMP280;46444;45.590;5.284;2023-03-21T16:40:22;98757.34;;;19.14
60615;BMP280;46444;45.590;5.284;2023-03-21T16:42:50;98749.22;;;19.14
60615;BMP280;46444;45.590;5.284;2023-03-21T16:45:18;98749.91;;;19.25
60615;BMP280;46444;45.590;5.284;2023-03-21T16:47:43;98751.03;;;19.24
60615;BMP280;46444;45.590;5.284;2023-03-21T16:50:23;98749.88;;;19.06
60615;BMP280;46444;45.590;5.284;2023-03-21T16:52:52;98752.06;;;19.04
60615;BMP280;46444;45.590;5.284;2023-03-21T16:55:17;98759.88;;;18.88
60615;BMP280;46444;45.590;5.284;2023-03-21T16:57:44;98748.09;;;18.79
60615;BMP280;46444;45.590;5.284;2023-03-21T17:00:15;98748.44;;;18.72
60615;BMP280;46444;45.590;5.284;2023-03-21T17:02:48;98759.63;;;18.66
60615;BMP280;46444;45.590;5.284;2023-03-21T17:05:16;98763.31;;;18.51
60615;BMP280;46444;45.590;5.284;2023-03-21T17:07:42;98750.53;;;18.33
60615;BMP280;46444;45.590;5.284;2023-03-21T17:10:26;98755.03;;;18.14
60615;BMP280;46444;45.590;5.284;2023-03-21T17:12:52;98743.41;;;18.14
60615;BMP280;46444;45.590;5.284;2023-03-21T17:15:19;98757.66;;;17.96
60615;BMP280;46444;45.590;5.284;2023-03-21T17:17:45;98750.84;;;17.70
60615;BMP280;46444;45.590;5.284;2023-03-21T17:22:46;98744.97;;;17.63
60615;BMP280;46444;45.590;5.284;2023-03-21T17:25:13;98743.84;;;17.64
60615;BMP280;46444;45.590;5.284;2023-03-21T17:27:38;98747.84;;;17.33
60615;BMP280;46444;45.590;5.284;2023-03-21T17:32:41;98751.38;;;17.33
60615;BMP280;46444;45.590;5.284;2023-03-21T17:35:07;98771.13;;;17.29
60615;BMP280;46444;45.590;5.284;2023-03-21T17:37:32;98766.31;;;17.16
60615;BMP280;46444;45.590;5.284;2023-03-21T17:39:58;98761.88;;;16.96
60615;BMP280;46444;45.590;5.284;2023-03-21T17:42:24;98764.28;;;16.93
60615;BMP280;46444;45.590;5.284;2023-03-21T17:44:49;98764.97;;;16.65
60615;BMP280;46444;45.590;5.284;2023-03-21T17:47:15;98761.69;;;16.73
60615;BMP280;46444;45.590;5.284;2023-03-21T17:49:41;98758.47;;;16.71
60615;BMP280;46444;45.590;5.284;2023-03-21T17:52:06;98761.72;;;16.63
60615;BMP280;46444;45.590;5.284;2023-03-21T17:54:32;98767.97;;;16.58
60615;BMP280;46444;45.590;5.284;2023-03-21T17:56:57;98760.44;;;16.55
60615;BMP280;46444;45.590;5.284;2023-03-21T17:59:23;98765.06;;;16.35
60615;BMP280;46444;45.590;5.284;2023-03-21T18:01:48;98765.31;;;16.33
60615;BMP280;46444;45.590;5.284;2023-03-21T18:04:14;98762.63;;;16.28
60615;BMP280;46444;45.590;5.284;2023-03-21T18:06:40;98765.06;;;16.25
60615;BMP280;46444;45.590;5.284;2023-03-21T18:09:06;98768.88;;;16.14
60615;BMP280;46444;45.590;5.284;2023-03-21T18:11:36;98765.63;;;16.12
60615;BMP280;46444;45.590;5.284;2023-03-21T18:14:03;98760.50;;;16.15
60615;BMP280;46444;45.590;5.284;2023-03-21T18:16:29;98758.91;;;16.14
60615;BMP280;46444;45.590;5.284;2023-03-21T20:04:56;98772.47;;;13.22
60615;BMP280;46444;45.590;5.284;2023-03-21T20:07:21;98772.22;;;13.23
60615;BMP280;46444;45.590;5.284;2023-03-21T20:09:47;98775.16;;;13.22
60615;BMP280;46444;45.590;5.284;2023-03-21T20:12:19;98783.44;;;13.20
60615;BMP280;46444;45.590;5.284;2023-03-21T20:14:49;98793.78;;;13.07
60615;BMP280;46444;45.590;5.284;2023-03-21T20:17:18;98795.47;;;13.13
60615;BMP280;46444;45.590;5.284;2023-03-21T20:19:43;98777.47;;;13.13
60615;BMP280;46444;45.590;5.284;2023-03-21T20:22:11;98779.81;;;13.05
60615;BMP280;46444;45.590;5.284;2023-03-21T20:24:37;98783.50;;;12.99
60615;BMP280;46444;45.590;5.284;2023-03-21T20:27:03;98777.00;;;12.95
60615;BMP280;46444;45.590;5.284;2023-03-21T20:29:28;98774.13;;;12.80
60615;BMP280;46444;45.590;5.284;2023-03-21T20:31:59;98778.78;;;12.89
60615;BMP280;46444;45.590;5.284;2023-03-21T20:34:24;98771.56;;;12.90
60615;BMP280;46444;45.590;5.284;2023-03-21T20:39:27;98770.31;;;12.76
60615;BMP280;46444;45.590;5.284;2023-03-21T20:45:20;98772.38;;;12.69
60615;BMP280;46444;45.590;5.284;2023-03-21T20:47:45;98775.16;;;12.52
60615;BMP280;46444;45.590;5.284;2023-03-21T20:50:12;98784.00;;;12.53
60615;BMP280;46444;45.590;5.284;2023-03-21T20:52:39;98787.78;;;12.57
60615;BMP280;46444;45.590;5.284;2023-03-21T20:55:06;98796.72;;;12.62
60615;BMP280;46444;45.590;5.284;2023-03-21T20:57:36;98803.63;;;12.58
60615;BMP280;46444;45.590;5.284;2023-03-21T21:00:05;98805.81;;;12.61
60615;BMP280;46444;45.590;5.284;2023-03-21T21:02:49;98803.88;;;12.57
60615;BMP280;46444;45.590;5.284;2023-03-21T21:05:16;98810.22;;;12.51
60615;BMP280;46444;45.590;5.284;2023-03-21T21:07:42;98812.03;;;12.45
60615;BMP280;46444;45.590;5.284;2023-03-21T21:10:15;98813.28;;;12.38
60615;BMP280;46444;45.590;5.284;2023-03-21T21:12:42;98807.44;;;12.41
60615;BMP280;46444;45.590;5.284;2023-03-21T21:15:13;98815.88;;;12.33
60615;BMP280;46444;45.590;5.284;2023-03-21T21:17:40;98811.91;;;12.35
60615;BMP280;46444;45.590;5.284;2023-03-21T21:20:18;98818.06;;;12.36
60615;BMP280;46444;45.590;5.284;2023-03-21T21:22:48;98820.28;;;12.22
60615;BMP280;46444;45.590;5.284;2023-03-21T21:25:15;98825.53;;;12.34
60615;BMP280;46444;45.590;5.284;2023-03-21T21:27:40;98833.53;;;12.29
60615;BMP280;46444;45.590;5.284;2023-03-21T21:30:06;98826.41;;;12.18
60615;BMP280;46444;45.590;5.284;2023-03-21T21:32:33;98834.00;;;12.26
60615;BMP280;46444;45.590;5.284;2023-03-21T21:34:59;98836.38;;;12.22
60615;BMP280;46444;45.590;5.284;2023-03-21T21:41:06;98832.22;;;12.15
60615;BMP280;46444;45.590;5.284;2023-03-21T21:43:34;98824.09;;;12.10
60615;BMP280;46444;45.590;5.284;2023-03-21T21:46:00;98826.88;;;11.98
60615;BMP280;46444;45.590;5.284;2023-03-21T21:48:28;98823.91;;;11.95
60615;BMP280;46444;45.590;5.284;2023-03-21T21:50:53;98819.00;;;11.92
60615;BMP280;46444;45.590;5.284;2023-03-21T21:53:21;98817.94;;;11.93
60615;BMP280;46444;45.590;5.284;2023-03-21T21:55:47;98816.66;;;11.95
60615;BMP280;46444;45.590;5.284;2023-03-21T21:58:17;98813.25;;;12.00